Time,TemperatureF,DewpointF,PressureIn,WindDirection,WindDirectionDegrees,WindSpeedMPH,WindSpeedGustMPH,Humidity,HourlyPrecipIn,Conditions,Clouds,dailyrainin,SoftwareType,DateUTC
2013-11-16 00:03:00,44.4,39.6,29.46,SE,135,6.8,-999.0,83,-99.99,,,0.00,Acu-Link.com,2013-11-16 06:03:00,
2013-11-16 00:18:00,44.6,40.1,29.45,SSE,157,6.8,-999.0,84,-99.99,,,0.00,Acu-Link.com,2013-11-16 06:18:00,
2013-11-16 00:34:00,44.8,40.3,29.44,ESE,112,5.8,-999.0,84,-99.99,,,0.00,Acu-Link.com,2013-11-16 06:34:00,
2013-11-16 00:49:00,45.9,41.6,29.44,SSE,157,6.8,-999.0,85,-99.99,,,0.00,Acu-Link.com,2013-11-16 06:49:00,
2013-11-16 01:04:00,46.6,42.3,29.43,SE,135,8.3,-999.0,85,-99.99,,,0.00,Acu-Link.com,2013-11-16 07:04:00,
2013-11-16 01:19:00,46.8,42.2,29.42,SE,135,6.3,-999.0,84,-99.99,,,0.00,Acu-Link.com,2013-11-16 07:19:00,
2013-11-16 01:34:00,46.8,42.2,29.41,SE,135,8.3,-999.0,84,-99.99,,,0.00,Acu-Link.com,2013-11-16 07:34:00,
2013-11-16 01:49:00,46.9,42.3,29.41,SSE,157,7.3,-999.0,84,-99.99,,,0.00,Acu-Link.com,2013-11-16 07:49:00,
2013-11-16 02:05:00,46.9,42.3,29.40,SE,135,7.8,-999.0,84,-99.99,,,0.00,Acu-Link.com,2013-11-16 08:05:00,
2013-11-16 02:20:00,47.1,42.5,29.39,SE,135,8.9,-999.0,84,-99.99,,,0.00,Acu-Link.com,2013-11-16 08:20:00,
2013-11-16 02:35:00,47.3,42.7,29.38,ESE,112,6.3,-999.0,84,-99.99,,,0.00,Acu-Link.com,2013-11-16 08:35:00,
2013-11-16 02:51:00,47.1,42.5,29.38,SSE,157,7.8,-999.0,84,-99.99,,,0.00,Acu-Link.com,2013-11-16 08:51:00,
2013-11-16 03:06:00,46.8,42.5,29.37,SSE,157,8.9,-999.0,85,-99.99,,,0.00,Acu-Link.com,2013-11-16 09:06:00,
2013-11-16 03:21:00,46.6,42.3,29.36,ESE,112,10.4,-999.0,85,-99.99,,,0.00,Acu-Link.com,2013-11-16 09:21:00,
2013-11-16 03:36:00,46.6,42.3,29.35,SSE,157,9.4,-999.0,85,-99.99,,,0.00,Acu-Link.com,2013-11-16 09:36:00,
2013-11-16 03:51:00,46.0,41.7,29.34,ESE,112,6.8,-999.0,85,-99.99,,,0.00,Acu-Link.com,2013-11-16 09:51:00,
2013-11-16 04:06:00,45.7,41.8,29.33,SE,135,6.3,-999.0,86,-99.99,,,0.00,Acu-Link.com,2013-11-16 10:06:00,
2013-11-16 04:21:00,45.3,41.7,29.33,SE,135,5.3,-999.0,87,-99.99,,,0.00,Acu-Link.com,2013-11-16 10:21:00,
2013-11-16 04:36:00,45.7,42.4,29.31,ESE,112,8.3,-999.0,88,-99.99,,,0.00,Acu-Link.com,2013-11-16 10:36:00,
2013-11-16 04:51:00,44.4,41.1,29.30,ESE,112,5.8,-999.0,88,-99.99,,,0.00,Acu-Link.com,2013-11-16 10:51:00,
2013-11-16 05:06:00,47.5,44.7,29.29,SSE,157,11.9,-999.0,90,-99.99,,,0.00,Acu-Link.com,2013-11-16 11:06:00,
2013-11-16 05:21:00,48.2,45.1,29.29,SE,135,9.9,-999.0,89,-99.99,,,0.00,Acu-Link.com,2013-11-16 11:21:00,
2013-11-16 05:36:00,48.2,45.1,29.27,SSE,157,10.9,-999.0,89,-99.99,,,0.00,Acu-Link.com,2013-11-16 11:36:00,
2013-11-16 05:51:00,48.9,45.8,29.26,South,180,7.8,-999.0,89,-99.99,,,0.00,Acu-Link.com,2013-11-16 11:51:00,
2013-11-16 06:06:00,49.6,46.2,29.25,SSE,157,8.9,-999.0,88,-99.99,,,0.00,Acu-Link.com,2013-11-16 12:06:00,
2013-11-16 06:21:00,50.5,47.1,29.25,SE,135,10.9,-999.0,88,-99.99,,,0.00,Acu-Link.com,2013-11-16 12:21:00,
2013-11-16 06:36:00,51.1,47.7,29.24,SSE,157,11.4,-999.0,88,-99.99,,,0.00,Acu-Link.com,2013-11-16 12:36:00,
2013-11-16 06:51:00,51.4,48.0,29.24,SSW,202,13.0,-999.0,88,-99.99,,,0.00,Acu-Link.com,2013-11-16 12:51:00,
2013-11-16 07:06:00,52.0,48.6,29.25,South,180,13.0,-999.0,88,-99.99,,,0.00,Acu-Link.com,2013-11-16 13:06:00,
2013-11-16 07:21:00,52.5,48.7,29.24,South,180,7.8,-999.0,87,-99.99,,,0.00,Acu-Link.com,2013-11-16 13:21:00,
2013-11-16 07:36:00,53.2,49.4,29.23,SSE,157,7.8,-999.0,87,-99.99,,,0.00,Acu-Link.com,2013-11-16 13:36:00,
2013-11-16 07:52:00,53.8,49.7,29.23,South,180,7.3,-999.0,86,-99.99,,,0.00,Acu-Link.com,2013-11-16 13:52:00,
2013-11-16 08:07:00,54.3,50.2,29.22,ESE,112,8.9,-999.0,86,-99.99,,,0.00,Acu-Link.com,2013-11-16 14:07:00,
2013-11-16 08:22:00,54.9,50.5,29.22,ESE,112,10.9,-999.0,85,-99.99,,,0.00,Acu-Link.com,2013-11-16 14:22:00,
2013-11-16 08:37:00,57.2,51.8,29.21,SSW,202,16.1,-999.0,82,-99.99,,,0.00,Acu-Link.com,2013-11-16 14:37:00,
2013-11-16 08:52:00,58.1,52.0,29.23,South,180,16.1,-999.0,80,-99.99,,,0.00,Acu-Link.com,2013-11-16 14:52:00,
2013-11-16 09:07:00,59.9,52.3,29.22,SSW,202,17.1,-999.0,76,-99.99,,,0.00,Acu-Link.com,2013-11-16 15:07:00,
2013-11-16 09:22:00,61.2,52.8,29.21,SSW,202,19.7,-999.0,74,-99.99,,,0.02,Acu-Link.com,2013-11-16 15:22:00,
2013-11-16 09:37:00,61.0,52.3,29.22,South,180,22.7,-999.0,73,-99.99,,,0.02,Acu-Link.com,2013-11-16 15:37:00,
2013-11-16 09:52:00,61.0,51.9,29.21,SSW,202,22.2,-999.0,72,-99.99,,,0.04,Acu-Link.com,2013-11-16 15:52:00,
2013-11-16 10:07:00,61.3,51.8,29.21,South,180,24.3,-999.0,71,-99.99,,,0.04,Acu-Link.com,2013-11-16 16:07:00,
2013-11-16 10:22:00,60.6,51.1,29.20,SSW,202,16.6,-999.0,71,-99.99,,,0.05,Acu-Link.com,2013-11-16 16:22:00,
2013-11-16 10:38:00,61.9,52.0,29.22,SSW,202,18.6,-999.0,70,-99.99,,,0.09,Acu-Link.com,2013-11-16 16:38:00,
2013-11-16 10:53:00,62.8,52.1,29.21,South,180,23.8,-999.0,68,-99.99,,,0.11,Acu-Link.com,2013-11-16 16:53:00,
2013-11-16 11:08:00,62.1,51.4,29.21,SSW,202,23.8,-999.0,68,-99.99,,,0.22,Acu-Link.com,2013-11-16 17:08:00,
2013-11-16 11:24:00,62.2,50.3,29.20,SSW,202,20.7,-999.0,65,-99.99,,,0.42,Acu-Link.com,2013-11-16 17:24:00,
2013-11-16 11:39:00,62.6,49.0,29.20,West,270,27.4,-999.0,61,-99.99,,,0.47,Acu-Link.com,2013-11-16 17:39:00,
2013-11-16 11:54:00,62.2,49.0,29.19,WSW,247,17.6,-999.0,62,-99.99,,,0.91,Acu-Link.com,2013-11-16 17:54:00,
2013-11-16 12:09:00,62.2,48.6,29.19,SW,225,22.7,-999.0,61,-99.99,,,0.91,Acu-Link.com,2013-11-16 18:09:00,
2013-11-16 12:24:00,63.3,47.3,29.18,SSW,202,20.7,-999.0,56,-99.99,,,1.00,Acu-Link.com,2013-11-16 18:24:00,
2013-11-16 12:39:00,65.7,47.1,29.19,SW,225,11.4,-999.0,51,-99.99,,,1.08,Acu-Link.com,2013-11-16 18:39:00,
2013-11-16 12:55:00,65.5,46.4,29.19,SW,225,13.0,-999.0,50,-99.99,,,1.08,Acu-Link.com,2013-11-16 18:55:00,
2013-11-16 13:10:00,66.0,45.2,29.19,SSW,202,16.6,-999.0,47,-99.99,,,1.08,Acu-Link.com,2013-11-16 19:10:00,
2013-11-16 13:25:00,66.6,43.4,29.19,SSW,202,15.0,-999.0,43,-99.99,,,1.08,Acu-Link.com,2013-11-16 19:25:00,
2013-11-16 13:40:00,67.1,42.0,29.19,WSW,247,15.0,-999.0,40,-99.99,,,1.08,Acu-Link.com,2013-11-16 19:40:00,
2013-11-16 13:55:00,67.3,40.8,29.19,WSW,247,10.9,-999.0,38,-99.99,,,1.08,Acu-Link.com,2013-11-16 19:55:00,
2013-11-16 14:10:00,67.5,38.9,29.20,West,270,17.1,-999.0,35,-99.99,,,1.08,Acu-Link.com,2013-11-16 20:10:00,
2013-11-16 14:25:00,66.7,37.4,29.20,WSW,247,9.9,-999.0,34,-99.99,,,1.08,Acu-Link.com,2013-11-16 20:25:00,
2013-11-16 14:40:00,67.1,37.0,29.20,WSW,247,11.4,-999.0,33,-99.99,,,1.08,Acu-Link.com,2013-11-16 20:40:00,
2013-11-16 14:55:00,67.1,34.6,29.20,WSW,247,13.0,-999.0,30,-99.99,,,1.08,Acu-Link.com,2013-11-16 20:55:00,
2013-11-16 15:10:00,67.3,34.8,29.20,SW,225,16.6,-999.0,30,-99.99,,,1.08,Acu-Link.com,2013-11-16 21:10:00,
2013-11-16 15:25:00,66.9,34.5,29.22,SW,225,13.5,-999.0,30,-99.99,,,1.08,Acu-Link.com,2013-11-16 21:25:00,
2013-11-16 15:40:00,66.6,34.2,29.21,West,270,9.4,-999.0,30,-99.99,,,1.08,Acu-Link.com,2013-11-16 21:40:00,
2013-11-16 15:56:00,65.7,31.7,29.22,West,270,7.8,-999.0,28,-99.99,,,1.08,Acu-Link.com,2013-11-16 21:56:00,
2013-11-16 16:11:00,64.9,31.9,29.23,WSW,247,9.4,-999.0,29,-99.99,,,1.08,Acu-Link.com,2013-11-16 22:11:00,
2013-11-16 16:27:00,63.9,32.7,29.23,SSW,202,7.8,-999.0,31,-99.99,,,1.08,Acu-Link.com,2013-11-16 22:27:00,
2013-11-16 16:42:00,61.9,31.7,29.23,SW,225,8.3,-999.0,32,-99.99,,,1.08,Acu-Link.com,2013-11-16 22:42:00,
2013-11-16 16:57:00,59.7,31.3,29.24,SSW,202,6.8,-999.0,34,-99.99,,,1.08,Acu-Link.com,2013-11-16 22:57:00,
2013-11-16 17:12:00,56.8,30.8,29.24,SSW,202,6.3,-999.0,37,-99.99,,,1.08,Acu-Link.com,2013-11-16 23:12:00,
2013-11-16 17:27:00,55.9,30.0,29.25,SSW,202,7.8,-999.0,37,-99.99,,,1.08,Acu-Link.com,2013-11-16 23:27:00,
2013-11-16 17:42:00,55.6,30.4,29.26,SSW,202,6.8,-999.0,38,-99.99,,,1.08,Acu-Link.com,2013-11-16 23:42:00,
2013-11-16 17:57:00,54.1,29.7,29.27,SSW,202,6.3,-999.0,39,-99.99,,,1.08,Acu-Link.com,2013-11-16 23:57:00,
2013-11-16 18:12:00,53.4,29.7,29.27,WSW,247,4.7,-999.0,40,-99.99,,,1.08,Acu-Link.com,2013-11-17 00:12:00,
2013-11-16 18:28:00,52.7,29.7,29.26,WSW,247,3.2,-999.0,41,-99.99,,,1.08,Acu-Link.com,2013-11-17 00:28:00,
2013-11-16 18:43:00,51.1,29.4,29.26,WSW,247,3.2,-999.0,43,-99.99,,,1.08,Acu-Link.com,2013-11-17 00:43:00,
2013-11-16 18:58:00,49.5,29.6,29.25,NW,315,1.7,-999.0,46,-99.99,,,1.08,Acu-Link.com,2013-11-17 00:58:00,
2013-11-16 19:13:00,48.9,29.6,29.24,NW,315,3.7,-999.0,47,-99.99,,,1.08,Acu-Link.com,2013-11-17 01:13:00,
2013-11-16 19:29:00,47.3,29.6,29.25,SW,225,2.7,-999.0,50,-99.99,,,1.08,Acu-Link.com,2013-11-17 01:29:00,
2013-11-16 19:44:00,47.5,29.8,29.25,SW,225,2.2,-999.0,50,-99.99,,,1.08,Acu-Link.com,2013-11-17 01:44:00,
2013-11-16 19:59:00,48.6,29.3,29.26,South,180,2.2,-999.0,47,-99.99,,,1.08,Acu-Link.com,2013-11-17 01:59:00,
2013-11-16 20:14:00,46.4,30.2,29.26,SE,135,4.7,-999.0,53,-99.99,,,1.08,Acu-Link.com,2013-11-17 02:14:00,
2013-11-16 20:29:00,47.5,30.8,29.27,SSE,157,6.3,-999.0,52,-99.99,,,1.08,Acu-Link.com,2013-11-17 02:29:00,
2013-11-16 20:44:00,49.3,29.9,29.27,SSW,202,3.2,-999.0,47,-99.99,,,1.08,Acu-Link.com,2013-11-17 02:44:00,
2013-11-16 20:59:00,47.3,31.0,29.26,WSW,247,0.0,-999.0,53,-99.99,,,1.08,Acu-Link.com,2013-11-17 02:59:00,
2013-11-16 21:15:00,48.0,31.7,29.26,West,270,0.0,-999.0,53,-99.99,,,1.08,Acu-Link.com,2013-11-17 03:15:00,
2013-11-16 21:30:00,48.6,32.3,29.26,ESE,112,2.2,-999.0,53,-99.99,,,1.08,Acu-Link.com,2013-11-17 03:30:00,
2013-11-16 21:45:00,46.9,32.0,29.25,ESE,112,2.2,-999.0,56,-99.99,,,1.08,Acu-Link.com,2013-11-17 03:45:00,
2013-11-16 22:01:00,47.7,31.9,29.24,ESE,112,0.0,-999.0,54,-99.99,,,1.08,Acu-Link.com,2013-11-17 04:01:00,
2013-11-16 22:16:00,46.4,32.9,29.25,SSE,157,0.0,-999.0,59,-99.99,,,1.08,Acu-Link.com,2013-11-17 04:16:00,
2013-11-16 22:31:00,46.6,31.3,29.24,North,0,2.7,-999.0,55,-99.99,,,1.08,Acu-Link.com,2013-11-17 04:31:00,
2013-11-16 22:46:00,46.4,31.1,29.24,East,90,2.7,-999.0,55,-99.99,,,1.08,Acu-Link.com,2013-11-17 04:46:00,
2013-11-16 23:02:00,46.0,31.6,29.25,ESE,112,0.0,-999.0,57,-99.99,,,1.08,Acu-Link.com,2013-11-17 05:02:00,
2013-11-16 23:17:00,46.0,35.3,29.25,WSW,247,0.0,-999.0,66,-99.99,,,1.08,Acu-Link.com,2013-11-17 05:17:00,
2013-11-16 23:32:00,46.0,33.3,29.24,ESE,112,1.7,-999.0,61,-99.99,,,1.08,Acu-Link.com,2013-11-17 05:32:00,
2013-11-16 23:47:00,46.6,34.7,29.23,NW,315,0.0,-999.0,63,-99.99,,,1.08,Acu-Link.com,2013-11-17 05:47:00,